sensor_id;sensor_type;location;lat;lon;timestamp;pressure;altitude;pressure_sealevel;temperature;humidity
44481;BME280;30184;42.018;23.670;2023-02-12T00:02:21;92262.88;;;-4.09;59.03
44481;BME280;30184;42.018;23.670;2023-02-12T00:04:52;92248.53;;;-4.08;58.80
44481;BME280;30184;42.018;23.670;2023-02-12T00:07:21;92202.28;;;-4.40;59.53
44481;BME280;30184;42.018;23.670;2023-02-12T00:09:50;92253.50;;;-4.07;59.94
44481;BME280;30184;42.018;23.670;2023-02-12T00:12:19;92282.66;;;-4.07;59.30
44481;BME280;30184;42.018;23.670;2023-02-12T00:14:48;92253.94;;;-4.05;59.44
44481;BME280;30184;42.018;23.670;2023-02-12T00:17:17;92246.78;;;-4.04;59.44
44481;BME280;30184;42.018;23.670;2023-02-12T00:19:46;92238.19;;;-4.01;59.85
44481;BME280;30184;42.018;23.670;2023-02-12T00:22:17;92234.75;;;-4.02;60.27
44481;BME280;30184;42.018;23.670;2023-02-12T00:24:46;92142.63;;;-4.67;60.39
44481;BME280;30184;42.018;23.670;2023-02-12T00:27:15;92244.38;;;-3.97;58.90
44481;BME280;30184;42.018;23.670;2023-02-12T00:29:44;92248.72;;;-3.93;58.05
44481;BME280;30184;42.018;23.670;2023-02-12T00:32:13;92246.22;;;-3.89;57.89
44481;BME280;30184;42.018;23.670;2023-02-12T00:34:46;92265.41;;;-3.92;60.04
44481;BME280;30184;42.018;23.670;2023-02-12T00:37:17;92236.03;;;-3.87;60.29
44481;BME280;30184;42.018;23.670;2023-02-12T00:39:45;92189.06;;;-4.20;60.46
44481;BME280;30184;42.018;23.670;2023-02-12T00:42:14;92247.88;;;-3.85;60.83
44481;BME280;30184;42.018;23.670;2023-02-12T00:44:45;92247.88;;;-3.85;60.95
44481;BME280;30184;42.018;23.670;2023-02-12T00:47:14;92234.75;;;-3.81;60.59
44481;BME280;30184;42.018;23.670;2023-02-12T00:49:43;92195.78;;;-4.01;60.69
44481;BME280;30184;42.018;23.670;2023-02-12T00:52:12;92225.38;;;-3.79;59.82
44481;BME280;30184;42.018;23.670;2023-02-12T00:54:43;92219.75;;;-3.77;59.81
44481;BME280;30184;42.018;23.670;2023-02-12T00:57:13;92215.66;;;-3.74;60.26
44481;BME280;30184;42.018;23.670;2023-02-12T00:59:42;92210.19;;;-3.90;60.55
44481;BME280;30184;42.018;23.670;2023-02-12T01:02:11;92210.38;;;-3.74;61.18
44481;BME280;30184;42.018;23.670;2023-02-12T01:04:40;92201.63;;;-3.75;61.41
44481;BME280;30184;42.018;23.670;2023-02-12T01:07:09;92202.28;;;-3.78;60.84
44481;BME280;30184;42.018;23.670;2023-02-12T01:09:38;92205.72;;;-3.78;59.63
44481;BME280;30184;42.018;23.670;2023-02-12T01:12:09;92173.25;;;-3.95;59.15
44481;BME280;30184;42.018;23.670;2023-02-12T01:14:37;92194.22;;;-3.82;59.79
44481;BME280;30184;42.018;23.670;2023-02-12T01:17:07;92194.22;;;-3.82;60.84
44481;BME280;30184;42.018;23.670;2023-02-12T01:19:37;92203.78;;;-3.89;61.25
44481;BME280;30184;42.018;23.670;2023-02-12T01:22:06;92199.13;;;-3.92;61.37
44481;BME280;30184;42.018;23.670;2023-02-12T01:24:35;92119.38;;;-4.82;61.49
44481;BME280;30184;42.018;23.670;2023-02-12T01:27:04;92192.28;;;-3.93;61.68
44481;BME280;30184;42.018;23.670;2023-02-12T01:29:35;92188.72;;;-3.97;61.85
44481;BME280;30184;42.018;23.670;2023-02-12T01:32:06;92183.94;;;-4.04;62.22
44481;BME280;30184;42.018;23.670;2023-02-12T01:34:35;92192.97;;;-4.05;61.89
44481;BME280;30184;42.018;23.670;2023-02-12T01:37:04;92197.06;;;-4.07;60.02
44481;BME280;30184;42.018;23.670;2023-02-12T01:39:33;92187.13;;;-4.10;59.77
44481;BME280;30184;42.018;23.670;2023-02-12T01:42:03;92190.09;;;-4.12;59.25
44481;BME280;30184;42.018;23.670;2023-02-12T01:44:35;92182.78;;;-4.15;59.56
44481;BME280;30184;42.018;23.670;2023-02-12T01:47:05;92174.72;;;-4.19;59.79
44481;BME280;30184;42.018;23.670;2023-02-12T01:49:36;92170.06;;;-4.22;60.77
44481;BME280;30184;42.018;23.670;2023-02-12T01:52:09;92168.91;;;-4.62;61.90
44481;BME280;30184;42.018;23.670;2023-02-12T01:54:41;92171.97;;;-4.31;62.09
44481;BME280;30184;42.018;23.670;2023-02-12T01:57:13;92172.94;;;-4.35;62.47
44481;BME280;30184;42.018;23.670;2023-02-12T01:59:47;92186.06;;;-4.39;62.56
44481;BME280;30184;42.018;23.670;2023-02-12T02:02:19;92173.00;;;-4.44;62.35
44481;BME280;30184;42.018;23.670;2023-02-12T02:04:52;92181.94;;;-4.48;61.73
44481;BME280;30184;42.018;23.670;2023-02-12T02:07:23;92169.63;;;-4.53;62.59
44481;BME280;30184;42.018;23.670;2023-02-12T02:09:52;92169.50;;;-4.57;63.05
44481;BME280;30184;42.018;23.670;2023-02-12T02:12:22;92174.56;;;-4.64;63.58
44481;BME280;30184;42.018;23.670;2023-02-12T02:15:10;92173.31;;;-4.66;63.69
44481;BME280;30184;42.018;23.670;2023-02-12T02:17:48;92190.91;;;-4.70;62.69
44481;BME280;30184;42.018;23.670;2023-02-12T02:20:42;92211.22;;;-4.74;62.02
44481;BME280;30184;42.018;23.670;2023-02-12T02:23:29;92112.31;;;-5.29;62.50
44481;BME280;30184;42.018;23.670;2023-02-12T02:26:23;92192.38;;;-4.81;62.98
44481;BME280;30184;42.018;23.670;2023-02-12T02:29:03;92169.31;;;-5.02;63.54
44481;BME280;30184;42.018;23.670;2023-02-12T02:31:40;92184.94;;;-4.88;63.89
44481;BME280;30184;42.018;23.670;2023-02-12T02:34:16;92165.56;;;-5.01;64.15
44481;BME280;30184;42.018;23.670;2023-02-12T02:36:49;92190.75;;;-4.95;64.97
44481;BME280;30184;42.018;23.670;2023-02-12T02:39:32;92182.03;;;-4.95;63.63
44481;BME280;30184;42.018;23.670;2023-02-12T02:42:10;92087.91;;;-5.81;62.90
44481;BME280;30184;42.018;23.670;2023-02-12T02:44:45;92229.06;;;-5.01;62.29
44481;BME280;30184;42.018;23.670;2023-02-12T02:47:20;92067.94;;;-5.61;63.02
44481;BME280;30184;42.018;23.670;2023-02-12T02:49:55;92152.97;;;-5.04;63.19
44481;BME280;30184;42.018;23.670;2023-02-12T02:52:28;92146.66;;;-5.20;64.11
44481;BME280;30184;42.018;23.670;2023-02-12T02:55:02;92159.97;;;-5.08;63.57
44481;BME280;30184;42.018;23.670;2023-02-12T02:57:37;92033.47;;;-6.03;63.34
44481;BME280;30184;42.018;23.670;2023-02-12T03:00:13;92163.63;;;-5.21;63.21
44481;BME280;30184;42.018;23.670;2023-02-12T03:02:48;92100.72;;;-5.53;63.06
44481;BME280;30184;42.018;23.670;2023-02-12T03:05:23;92001.97;;;-6.16;63.39
44481;BME280;30184;42.018;23.670;2023-02-12T03:07:58;92173.06;;;-5.11;63.49
44481;BME280;30184;42.018;23.670;2023-02-12T03:10:33;92095.00;;;-5.64;62.82
44481;BME280;30184;42.018;23.670;2023-02-12T03:13:06;92163.72;;;-5.09;62.74
44481;BME280;30184;42.018;23.670;2023-02-12T03:15:39;92112.66;;;-5.39;63.05
44481;BME280;30184;42.018;23.670;2023-02-12T03:18:15;92147.50;;;-5.07;63.46
44481;BME280;30184;42.018;23.670;2023-02-12T03:20:50;92148.66;;;-5.17;64.07
44481;BME280;30184;42.018;23.670;2023-02-12T03:23:24;92172.78;;;-5.18;63.51
44481;BME280;30184;42.018;23.670;2023-02-12T03:25:56;92154.69;;;-5.08;63.18
44481;BME280;30184;42.018;23.670;2023-02-12T03:28:28;92146.75;;;-5.08;63.31
44481;BME280;30184;42.018;23.670;2023-02-12T03:31:05;92145.38;;;-5.14;64.52
44481;BME280;30184;42.018;23.670;2023-02-12T03:33:45;92184.81;;;-5.30;64.15
44481;BME280;30184;42.018;23.670;2023-02-12T03:36:27;92156.13;;;-5.10;62.97
44481;BME280;30184;42.018;23.670;2023-02-12T03:39:07;92147.41;;;-5.11;63.06
44481;BME280;30184;42.018;23.670;2023-02-12T03:41:42;92163.28;;;-5.11;62.86
44481;BME280;30184;42.018;23.670;2023-02-12T03:44:17;92086.47;;;-6.08;62.96
44481;BME280;30184;42.018;23.670;2023-02-12T03:46:58;92143.19;;;-5.12;63.39
44481;BME280;30184;42.018;23.670;2023-02-12T03:49:35;92149.25;;;-5.11;63.63
44481;BME280;30184;42.018;23.670;2023-02-12T03:52:06;92155.34;;;-5.11;64.16
44481;BME280;30184;42.018;23.670;2023-02-12T03:54:35;92150.66;;;-5.14;64.56
44481;BME280;30184;42.018;23.670;2023-02-12T03:57:07;92153.94;;;-5.17;64.54
44481;BME280;30184;42.018;23.670;2023-02-12T03:59:38;92140.72;;;-5.17;64.09
44481;BME280;30184;42.018;23.670;2023-02-12T04:02:08;92134.88;;;-5.31;63.73
44481;BME280;30184;42.018;23.670;2023-02-12T04:04:38;92161.56;;;-5.15;63.65
44481;BME280;30184;42.018;23.670;2023-02-12T04:07:07;92149.13;;;-5.15;63.51
44481;BME280;30184;42.018;23.670;2023-02-12T04:09:36;92153.31;;;-5.14;63.45
44481;BME280;30184;42.018;23.670;2023-02-12T04:12:20;92146.94;;;-5.13;63.88
44481;BME280;30184;42.018;23.670;2023-02-12T04:17:56;92129.19;;;-5.12;64.76
44481;BME280;30184;42.018;23.670;2023-02-12T04:20:36;92141.00;;;-5.10;64.25
44481;BME280;30184;42.018;23.670;2023-02-12T04:23:16;92142.69;;;-5.05;63.71
44481;BME280;30184;42.018;23.670;2023-02-12T04:25:54;92123.06;;;-5.04;63.94
44481;BME280;30184;42.018;23.670;2023-02-12T04:28:34;92137.28;;;-5.17;64.02
44481;BME280;30184;42.018;23.670;2023-02-12T04:31:12;92143.94;;;-5.03;64.03
44481;BME280;30184;42.018;23.670;2023-02-12T04:33:47;92134.44;;;-5.04;64.18
44481;BME280;30184;42.018;23.670;2023-02-12T04:36:22;92033.59;;;-5.99;63.90
44481;BME280;30184;42.018;23.670;2023-02-12T04:38:55;92081.44;;;-5.54;64.44
44481;BME280;30184;42.018;23.670;2023-02-12T04:41:26;92003.69;;;-6.29;64.38
44481;BME280;30184;42.018;23.670;2023-02-12T04:43:55;92157.47;;;-5.04;62.68
44481;BME280;30184;42.018;23.670;2023-02-12T04:46:24;92090.63;;;-5.51;63.28
44481;BME280;30184;42.018;23.670;2023-02-12T04:48:54;92155.09;;;-4.97;63.56
44481;BME280;30184;42.018;23.670;2023-02-12T04:51:25;92148.09;;;-4.93;63.62
44481;BME280;30184;42.018;23.670;2023-02-12T04:53:54;92043.56;;;-5.67;63.06
44481;BME280;30184;42.018;23.670;2023-02-12T04:56:24;92071.13;;;-5.38;62.91
44481;BME280;30184;42.018;23.670;2023-02-12T04:58:52;91800.69;;;-7.44;62.77
44481;BME280;30184;42.018;23.670;2023-02-12T05:01:24;92119.84;;;-5.10;63.06
44481;BME280;30184;42.018;23.670;2023-02-12T05:03:55;92150.03;;;-4.81;62.77
44481;BME280;30184;42.018;23.670;2023-02-12T05:06:25;92150.47;;;-4.79;62.66
44481;BME280;30184;42.018;23.670;2023-02-12T05:08:54;91964.75;;;-5.94;62.49
44481;BME280;30184;42.018;23.670;2023-02-12T05:11:24;92134.53;;;-4.71;63.00
44481;BME280;30184;42.018;23.670;2023-02-12T05:13:53;92118.47;;;-4.86;63.41
44481;BME280;30184;42.018;23.670;2023-02-12T05:16:23;92133.13;;;-4.68;63.88
44481;BME280;30184;42.018;23.670;2023-02-12T05:18:52;91913.34;;;-6.05;63.20
44481;BME280;30184;42.018;23.670;2023-02-12T05:21:21;92090.84;;;-5.36;62.56
44481;BME280;30184;42.018;23.670;2023-02-12T05:23:51;92124.47;;;-4.77;62.88
44481;BME280;30184;42.018;23.670;2023-02-12T05:26:21;92051.47;;;-5.58;62.09
44481;BME280;30184;42.018;23.670;2023-02-12T05:28:50;92151.28;;;-4.58;62.68
44481;BME280;30184;42.018;23.670;2023-02-12T05:31:19;92148.44;;;-4.53;62.94
44481;BME280;30184;42.018;23.670;2023-02-12T05:33:49;92146.25;;;-4.51;62.73
44481;BME280;30184;42.018;23.670;2023-02-12T05:36:19;92135.47;;;-4.46;62.71
44481;BME280;30184;42.018;23.670;2023-02-12T05:38:51;92138.25;;;-4.42;62.03
44481;BME280;30184;42.018;23.670;2023-02-12T05:41:22;92214.66;;;-4.53;61.63
44481;BME280;30184;42.018;23.670;2023-02-12T05:43:52;92095.06;;;-5.05;61.59
44481;BME280;30184;42.018;23.670;2023-02-12T05:46:21;92140.19;;;-4.31;61.37
44481;BME280;30184;42.018;23.670;2023-02-12T05:48:51;92147.94;;;-4.26;60.95
44481;BME280;30184;42.018;23.670;2023-02-12T05:51:22;92152.59;;;-4.23;60.71
44481;BME280;30184;42.018;23.670;2023-02-12T05:53:56;92155.06;;;-4.18;60.78
44481;BME280;30184;42.018;23.670;2023-02-12T05:56:28;92173.41;;;-4.13;60.61
44481;BME280;30184;42.018;23.670;2023-02-12T05:59:00;92169.44;;;-4.06;59.51
44481;BME280;30184;42.018;23.670;2023-02-12T06:01:31;92167.41;;;-4.01;59.01
44481;BME280;30184;42.018;23.670;2023-02-12T06:04:01;92179.34;;;-4.16;59.73
44481;BME280;30184;42.018;23.670;2023-02-12T06:06:32;92181.81;;;-3.90;60.33
44481;BME280;30184;42.018;23.670;2023-02-12T06:09:02;92174.75;;;-3.86;60.54
44481;BME280;30184;42.018;23.670;2023-02-12T06:11:31;92175.75;;;-3.78;60.73
44481;BME280;30184;42.018;23.670;2023-02-12T06:14:01;92093.81;;;-4.37;60.29
44481;BME280;30184;42.018;23.670;2023-02-12T06:16:31;92083.72;;;-4.43;60.12
44481;BME280;30184;42.018;23.670;2023-02-12T06:19:02;92129.09;;;-3.91;60.33
44481;BME280;30184;42.018;23.670;2023-02-12T06:21:32;92198.28;;;-3.51;60.34
44481;BME280;30184;42.018;23.670;2023-02-12T06:24:03;92093.78;;;-4.78;60.05
44481;BME280;30184;42.018;23.670;2023-02-12T06:26:32;92055.31;;;-4.76;59.96
44481;BME280;30184;42.018;23.670;2023-02-12T06:29:01;92198.66;;;-3.41;59.82
44481;BME280;30184;42.018;23.670;2023-02-12T06:31:32;92188.63;;;-3.35;59.23
44481;BME280;30184;42.018;23.670;2023-02-12T06:34:05;92069.66;;;-4.02;59.85
44481;BME280;30184;42.018;23.670;2023-02-12T06:36:36;92189.53;;;-3.19;59.87
44481;BME280;30184;42.018;23.670;2023-02-12T06:39:23;92021.47;;;-4.70;59.64
44481;BME280;30184;42.018;23.670;2023-02-12T06:41:56;92157.03;;;-3.61;59.52
44481;BME280;30184;42.018;23.670;2023-02-12T06:44:24;92196.22;;;-2.88;59.43
44481;BME280;30184;42.018;23.670;2023-02-12T06:46:53;92119.41;;;-3.30;59.55
44481;BME280;30184;42.018;23.670;2023-02-12T06:49:24;92085.00;;;-3.39;59.60
44481;BME280;30184;42.018;23.670;2023-02-12T06:51:53;92188.03;;;-2.59;60.29
44481;BME280;30184;42.018;23.670;2023-02-12T06:54:23;92189.38;;;-2.53;60.38
44481;BME280;30184;42.018;23.670;2023-02-12T06:56:52;92188.13;;;-2.43;60.26
44481;BME280;30184;42.018;23.670;2023-02-12T06:59:21;92150.50;;;-2.57;60.02
44481;BME280;30184;42.018;23.670;2023-02-12T07:01:50;92175.50;;;-2.58;60.11
44481;BME280;30184;42.018;23.670;2023-02-12T07:04:19;92157.81;;;-2.42;59.81
44481;BME280;30184;42.018;23.670;2023-02-12T07:06:49;92203.34;;;-2.04;59.71
44481;BME280;30184;42.018;23.670;2023-02-12T07:09:18;92202.56;;;-1.92;59.53
44481;BME280;30184;42.018;23.670;2023-02-12T07:11:50;92200.97;;;-1.81;59.44
44481;BME280;30184;42.018;23.670;2023-02-12T07:14:19;92210.03;;;-1.70;58.83
44481;BME280;30184;42.018;23.670;2023-02-12T07:16:48;92183.47;;;-1.82;57.42
44481;BME280;30184;42.018;23.670;2023-02-12T07:19:19;92213.72;;;-1.46;58.09
44481;BME280;30184;42.018;23.670;2023-02-12T07:21:48;92205.69;;;-1.34;56.60
44481;BME280;30184;42.018;23.670;2023-02-12T07:24:17;92193.88;;;-1.21;55.89
44481;BME280;30184;42.018;23.670;2023-02-12T07:26:46;92205.66;;;-1.06;54.69
44481;BME280;30184;42.018;23.670;2023-02-12T07:29:18;92127.22;;;-1.68;51.73
44481;BME280;30184;42.018;23.670;2023-02-12T07:31:47;92037.09;;;-1.85;52.43
44481;BME280;30184;42.018;23.670;2023-02-12T07:34:16;92125.19;;;-1.59;53.20
44481;BME280;30184;42.018;23.670;2023-02-12T07:36:45;92197.59;;;-0.63;54.01
44481;BME280;30184;42.018;23.670;2023-02-12T07:39:14;92211.88;;;-0.40;54.49
44481;BME280;30184;42.018;23.670;2023-02-12T07:41:43;91876.00;;;-2.46;54.12
44481;BME280;30184;42.018;23.670;2023-02-12T07:44:17;92048.94;;;-1.67;52.25
44481;BME280;30184;42.018;23.670;2023-02-12T07:46:48;92206.84;;;-0.10;52.16
44481;BME280;30184;42.018;23.670;2023-02-12T07:49:20;92325.03;;;-0.53;51.59
44481;BME280;30184;42.018;23.670;2023-02-12T07:51:49;91930.19;;;-2.50;51.08
44481;BME280;30184;42.018;23.670;2023-02-12T07:54:19;92309.63;;;0.19;50.97
44481;BME280;30184;42.018;23.670;2023-02-12T07:56:49;92082.00;;;-0.90;51.08
44481;BME280;30184;42.018;23.670;2023-02-12T07:59:20;92215.25;;;0.47;51.20
44481;BME280;30184;42.018;23.670;2023-02-12T08:01:50;92192.97;;;0.20;50.84
44481;BME280;30184;42.018;23.670;2023-02-12T08:04:21;92200.09;;;0.70;50.24
44481;BME280;30184;42.018;23.670;2023-02-12T08:06:53;92203.31;;;0.79;50.57
44481;BME280;30184;42.018;23.670;2023-02-12T08:09:24;92204.31;;;0.90;49.59
44481;BME280;30184;42.018;23.670;2023-02-12T08:11:54;92120.34;;;-0.28;48.92
44481;BME280;30184;42.018;23.670;2023-02-12T08:14:25;92208.06;;;1.08;49.02
44481;BME280;30184;42.018;23.670;2023-02-12T08:16:54;92199.88;;;1.21;48.95
44481;BME280;30184;42.018;23.670;2023-02-12T08:19:24;92106.09;;;-0.16;48.70
44481;BME280;30184;42.018;23.670;2023-02-12T08:21:56;91946.97;;;-1.40;48.63
44481;BME280;30184;42.018;23.670;2023-02-12T08:24:25;92198.97;;;1.59;48.53
44481;BME280;30184;42.018;23.670;2023-02-12T08:26:55;92091.44;;;0.74;48.13
44481;BME280;30184;42.018;23.670;2023-02-12T08:29:28;92228.41;;;1.81;47.87
44481;BME280;30184;42.018;23.670;2023-02-12T08:31:59;92175.09;;;1.69;47.75
44481;BME280;30184;42.018;23.670;2023-02-12T08:34:31;92057.53;;;1.01;47.36
44481;BME280;30184;42.018;23.670;2023-02-12T08:37:03;92217.41;;;2.13;47.08
44481;BME280;30184;42.018;23.670;2023-02-12T08:39:33;92215.25;;;2.22;46.67
44481;BME280;30184;42.018;23.670;2023-02-12T08:42:02;92213.88;;;2.32;45.97
44481;BME280;30184;42.018;23.670;2023-02-12T08:44:32;92296.63;;;2.40;45.33
44481;BME280;30184;42.018;23.670;2023-02-12T08:47:01;92217.16;;;2.51;45.00
44481;BME280;30184;42.018;23.670;2023-02-12T08:49:32;92149.19;;;1.77;44.74
44481;BME280;30184;42.018;23.670;2023-02-12T08:52:01;92213.63;;;2.74;44.48
44481;BME280;30184;42.018;23.670;2023-02-12T08:54:30;92175.97;;;2.63;44.08
44481;BME280;30184;42.018;23.670;2023-02-12T08:57:00;92130.16;;;2.38;43.51
44481;BME280;30184;42.018;23.670;2023-02-12T08:59:32;92203.19;;;2.98;43.59
44481;BME280;30184;42.018;23.670;2023-02-12T09:02:01;91991.41;;;0.49;42.87
44481;BME280;30184;42.018;23.670;2023-02-12T09:04:35;92244.31;;;2.80;42.92
44481;BME280;30184;42.018;23.670;2023-02-12T09:07:04;92216.66;;;3.39;42.39
44481;BME280;30184;42.018;23.670;2023-02-12T09:09:35;92248.28;;;3.23;42.39
44481;BME280;30184;42.018;23.670;2023-02-12T09:12:05;92135.72;;;2.93;42.62
44481;BME280;30184;42.018;23.670;2023-02-12T09:14:35;92305.03;;;3.62;42.75
44481;BME280;30184;42.018;23.670;2023-02-12T09:17:04;92220.91;;;3.88;42.36
44481;BME280;30184;42.018;23.670;2023-02-12T09:19:34;92023.56;;;2.54;42.23
44481;BME280;30184;42.018;23.670;2023-02-12T09:22:03;91966.00;;;2.01;42.41
44481;BME280;30184;42.018;23.670;2023-02-12T09:24:32;91989.03;;;2.46;42.56
44481;BME280;30184;42.018;23.670;2023-02-12T09:27:01;91913.31;;;2.52;42.19
44481;BME280;30184;42.018;23.670;2023-02-12T09:29:30;92238.03;;;4.17;42.32
44481;BME280;30184;42.018;23.670;2023-02-12T09:32:01;92211.91;;;4.79;41.86
44481;BME280;30184;42.018;23.670;2023-02-12T09:34:33;92203.50;;;4.87;41.70
44481;BME280;30184;42.018;23.670;2023-02-12T09:37:03;92205.44;;;5.01;41.60
44481;BME280;30184;42.018;23.670;2023-02-12T09:39:32;91953.59;;;3.14;41.33
44481;BME280;30184;42.018;23.670;2023-02-12T09:45:09;92182.41;;;5.04;40.84
44481;BME280;30184;42.018;23.670;2023-02-12T09:47:52;91999.53;;;3.71;40.53
44481;BME280;30184;42.018;23.670;2023-02-12T09:50:32;92186.75;;;5.47;40.36
44481;BME280;30184;42.018;23.670;2023-02-12T09:53:04;92172.53;;;5.43;40.39
44481;BME280;30184;42.018;23.670;2023-02-12T09:55:34;92109.97;;;4.45;40.24
44481;BME280;30184;42.018;23.670;2023-02-12T09:58:11;92155.25;;;5.62;40.87
44481;BME280;30184;42.018;23.670;2023-02-12T10:00:41;92129.47;;;5.36;40.49
44481;BME280;30184;42.018;23.670;2023-02-12T10:03:14;92053.69;;;5.02;39.52
44481;BME280;30184;42.018;23.670;2023-02-12T10:05:47;92167.53;;;6.30;39.72
44481;BME280;30184;42.018;23.670;2023-02-12T10:08:30;92162.91;;;6.42;39.61
44481;BME280;30184;42.018;23.670;2023-02-12T10:14:08;92100.59;;;6.04;39.46
44481;BME280;30184;42.018;23.670;2023-02-12T10:16:52;92087.16;;;6.01;39.41
44481;BME280;30184;42.018;23.670;2023-02-12T10:19:38;92163.25;;;6.51;39.31
44481;BME280;30184;42.018;23.670;2023-02-12T10:22:19;91974.13;;;4.52;39.40
44481;BME280;30184;42.018;23.670;2023-02-12T10:24:59;92160.25;;;5.81;39.73
44481;BME280;30184;42.018;23.670;2023-02-12T10:27:37;92172.94;;;6.38;39.54
44481;BME280;30184;42.018;23.670;2023-02-12T10:30:15;92166.38;;;6.39;39.55
44481;BME280;30184;42.018;23.670;2023-02-12T10:32:45;92064.88;;;5.65;39.83
44481;BME280;30184;42.018;23.670;2023-02-12T10:35:18;91915.00;;;4.98;39.69
44481;BME280;30184;42.018;23.670;2023-02-12T10:37:54;91955.31;;;5.12;39.30
44481;BME280;30184;42.018;23.670;2023-02-12T10:40:27;92160.88;;;6.81;40.15
44481;BME280;30184;42.018;23.670;2023-02-12T10:43:00;92169.81;;;6.57;40.26
44481;BME280;30184;42.018;23.670;2023-02-12T10:45:31;92139.22;;;6.99;40.21
44481;BME280;30184;42.018;23.670;2023-02-12T10:48:06;92112.69;;;6.83;39.89
44481;BME280;30184;42.018;23.670;2023-02-12T10:50:56;92144.91;;;7.19;39.75
44481;BME280;30184;42.018;23.670;2023-02-12T10:53:31;92146.06;;;7.18;39.83
44481;BME280;30184;42.018;23.670;2023-02-12T10:56:22;92145.66;;;7.23;39.78
44481;BME280;30184;42.018;23.670;2023-02-12T10:58:54;92137.50;;;7.30;39.89
44481;BME280;30184;42.018;23.670;2023-02-12T11:01:25;92140.50;;;7.42;40.02
44481;BME280;30184;42.018;23.670;2023-02-12T11:03:57;92145.00;;;7.63;39.53
44481;BME280;30184;42.018;23.670;2023-02-12T11:06:30;92119.84;;;7.22;38.85
44481;BME280;30184;42.018;23.670;2023-02-12T11:08:59;92134.06;;;7.81;38.56
44481;BME280;30184;42.018;23.670;2023-02-12T11:11:30;92137.06;;;7.94;38.59
44481;BME280;30184;42.018;23.670;2023-02-12T11:14:06;92140.16;;;7.92;38.72
44481;BME280;30184;42.018;23.670;2023-02-12T11:16:50;92139.31;;;8.02;38.81
44481;BME280;30184;42.018;23.670;2023-02-12T11:19:22;92124.59;;;8.07;38.75
44481;BME280;30184;42.018;23.670;2023-02-12T11:22:05;92158.28;;;7.95;39.15
44481;BME280;30184;42.018;23.670;2023-02-12T11:24:36;92004.72;;;6.94;39.12
44481;BME280;30184;42.018;23.670;2023-02-12T11:27:21;92097.63;;;7.55;39.30
44481;BME280;30184;42.018;23.670;2023-02-12T11:30:10;92021.81;;;6.73;39.48
44481;BME280;30184;42.018;23.670;2023-02-12T11:32:40;92128.97;;;6.51;39.62
44481;BME280;30184;42.018;23.670;2023-02-12T11:35:13;92149.78;;;7.41;39.86
44481;BME280;30184;42.018;23.670;2023-02-12T11:37:46;91792.09;;;4.77;40.07
44481;BME280;30184;42.018;23.670;2023-02-12T11:40:18;92136.78;;;7.22;40.48
44481;BME280;30184;42.018;23.670;2023-02-12T11:42:51;92039.25;;;6.51;40.34
44481;BME280;30184;42.018;23.670;2023-02-12T11:45:25;91720.03;;;3.69;40.43
44481;BME280;30184;42.018;23.670;2023-02-12T11:47:56;92051.97;;;6.47;40.48
44481;BME280;30184;42.018;23.670;2023-02-12T11:50:27;92142.63;;;7.06;40.36
44481;BME280;30184;42.018;23.670;2023-02-12T11:53:01;91977.22;;;4.78;40.76
44481;BME280;30184;42.018;23.670;2023-02-12T11:55:35;91853.53;;;5.00;40.83
44481;BME280;30184;42.018;23.670;2023-02-12T11:58:15;91941.81;;;5.54;41.14
44481;BME280;30184;42.018;23.670;2023-02-12T12:00:47;92165.09;;;6.86;41.39
44481;BME280;30184;42.018;23.670;2023-02-12T12:03:21;92106.53;;;6.79;41.30
44481;BME280;30184;42.018;23.670;2023-02-12T12:05:56;92144.13;;;7.15;41.77
44481;BME280;30184;42.018;23.670;2023-02-12T12:08:34;92073.56;;;6.43;41.66
44481;BME280;30184;42.018;23.670;2023-02-12T12:11:11;92163.09;;;7.00;42.13
44481;BME280;30184;42.018;23.670;2023-02-12T12:13:47;92042.91;;;5.80;42.59
44481;BME280;30184;42.018;23.670;2023-02-12T12:16:23;92163.53;;;6.88;42.73
44481;BME280;30184;42.018;23.670;2023-02-12T12:19:17;92163.09;;;6.97;42.85
44481;BME280;30184;42.018;23.670;2023-02-12T12:22:12;92161.22;;;6.94;42.78
44481;BME280;30184;42.018;23.670;2023-02-12T12:24:51;92168.16;;;6.95;43.01
44481;BME280;30184;42.018;23.670;2023-02-12T12:27:26;92171.19;;;7.00;42.97
44481;BME280;30184;42.018;23.670;2023-02-12T12:30:22;92168.97;;;6.85;43.49
44481;BME280;30184;42.018;23.670;2023-02-12T12:32:53;92183.22;;;6.78;43.77
44481;BME280;30184;42.018;23.670;2023-02-12T12:35:35;92174.78;;;6.62;44.31
44481;BME280;30184;42.018;23.670;2023-02-12T12:38:15;92129.84;;;6.16;44.46
44481;BME280;30184;42.018;23.670;2023-02-12T12:40:57;92182.56;;;6.31;45.34
44481;BME280;30184;42.018;23.670;2023-02-12T12:43:38;92031.78;;;4.97;46.01
44481;BME280;30184;42.018;23.670;2023-02-12T12:46:23;92081.38;;;4.02;46.42
44481;BME280;30184;42.018;23.670;2023-02-12T12:49:13;92202.19;;;5.72;47.00
44481;BME280;30184;42.018;23.670;2023-02-12T12:52:06;92086.31;;;4.86;47.37
44481;BME280;30184;42.018;23.670;2023-02-12T12:54:52;92196.41;;;5.62;47.67
44481;BME280;30184;42.018;23.670;2023-02-12T12:57:36;92192.94;;;5.62;47.31
44481;BME280;30184;42.018;23.670;2023-02-12T13:00:14;92202.53;;;5.67;47.63
44481;BME280;30184;42.018;23.670;2023-02-12T13:03:22;92206.78;;;5.71;47.73
44481;BME280;30184;42.018;23.670;2023-02-12T13:06:14;92209.50;;;5.82;47.52
44481;BME280;30184;42.018;23.670;2023-02-12T13:08:58;92129.38;;;4.90;47.47
44481;BME280;30184;42.018;23.670;2023-02-12T13:11:39;92150.97;;;5.18;47.52
44481;BME280;30184;42.018;23.670;2023-02-12T13:14:23;91976.69;;;4.05;47.78
44481;BME280;30184;42.018;23.670;2023-02-12T13:16:59;92125.97;;;5.18;47.43
44481;BME280;30184;42.018;23.670;2023-02-12T13:19:44;92089.41;;;5.10;47.07
44481;BME280;30184;42.018;23.670;2023-02-12T13:22:25;92140.91;;;5.01;47.53
44481;BME280;30184;42.018;23.670;2023-02-12T13:25:00;92178.25;;;5.28;47.39
44481;BME280;30184;42.018;23.670;2023-02-12T13:27:34;92233.38;;;5.97;47.61
44481;BME280;30184;42.018;23.670;2023-02-12T13:30:20;91997.25;;;3.80;47.34
44481;BME280;30184;42.018;23.670;2023-02-12T13:33:00;92250.28;;;5.84;47.66
44481;BME280;30184;42.018;23.670;2023-02-12T13:35:32;92256.81;;;5.86;47.90
44481;BME280;30184;42.018;23.670;2023-02-12T13:38:05;92259.50;;;5.72;47.82